createdAt,value
2023-05-23T00:00:16.691Z,19.60
2023-05-23T00:05:41.734Z,19.50
2023-05-23T00:10:45.884Z,19.60
2023-05-23T00:15:49.973Z,19.50
2023-05-23T00:20:54.826Z,19.40
2023-05-23T00:25:58.524Z,19.50
2023-05-23T00:31:02.241Z,19.40
2023-05-23T00:36:07.594Z,19.20
2023-05-23T00:41:11.070Z,19.10
2023-05-23T00:46:15.213Z,18.90
2023-05-23T00:51:20.230Z,18.90
2023-05-23T00:56:26.848Z,18.80
2023-05-23T01:01:30.349Z,18.70
2023-05-23T01:06:36.931Z,18.60
2023-05-23T01:11:47.342Z,18.50
2023-05-23T01:16:59.214Z,18.40
2023-05-23T01:22:13.768Z,18.20
2023-05-23T01:27:27.112Z,18.00
2023-05-23T01:32:33.432Z,17.90
2023-05-23T01:37:36.908Z,17.80
2023-05-23T01:42:41.084Z,17.70
2023-05-23T01:47:47.906Z,17.70
2023-05-23T01:52:52.482Z,17.60
2023-05-23T01:57:57.628Z,17.70
2023-05-23T02:03:02.684Z,17.70
2023-05-23T02:08:06.246Z,17.70
2023-05-23T02:13:09.704Z,17.70
2023-05-23T02:18:14.627Z,17.70
2023-05-23T02:23:18.398Z,17.70
2023-05-23T02:28:21.836Z,17.60
2023-05-23T02:33:26.886Z,17.60
2023-05-23T02:38:30.964Z,17.50
2023-05-23T02:43:34.773Z,17.50
2023-05-23T02:48:39.665Z,17.40
2023-05-23T02:53:43.443Z,17.20
2023-05-23T02:58:46.988Z,17.10
2023-05-23T03:03:52.109Z,17.10
2023-05-23T03:08:55.742Z,17.10
2023-05-23T03:13:59.323Z,17.10
2023-05-23T03:19:04.797Z,16.90
2023-05-23T03:24:08.429Z,16.80
2023-05-23T03:29:12.462Z,16.40
2023-05-23T03:34:18.023Z,16.30
2023-05-23T03:39:21.562Z,16.40
2023-05-23T03:44:25.153Z,16.30
2023-05-23T03:49:30.229Z,16.20
2023-05-23T03:54:33.781Z,16.20
2023-05-23T03:59:37.403Z,16.30
2023-05-23T04:04:42.279Z,16.30
2023-05-23T04:09:45.878Z,16.30
2023-05-23T04:14:50.351Z,16.30
2023-05-23T04:19:56.123Z,16.30
2023-05-23T04:25:00.406Z,16.50
2023-05-23T04:30:03.936Z,16.70
2023-05-23T04:35:10.291Z,16.90
2023-05-23T04:40:16.224Z,17.10
2023-05-23T04:45:19.745Z,17.30
2023-05-23T04:50:24.638Z,17.30
2023-05-23T04:55:28.138Z,17.30
2023-05-23T05:00:31.744Z,17.40
2023-05-23T05:05:37.360Z,17.40
2023-05-23T05:10:42.223Z,17.50
2023-05-23T05:15:46.230Z,17.50
2023-05-23T05:20:51.540Z,17.60
2023-05-23T05:25:57.053Z,17.80
2023-05-23T05:31:05.074Z,17.90
2023-05-23T05:36:10.435Z,18.10
2023-05-23T05:41:14.562Z,18.30
2023-05-23T05:46:18.087Z,18.40
2023-05-23T05:51:23.300Z,18.50
2023-05-23T05:56:28.156Z,18.60
2023-05-23T06:01:31.933Z,18.80
2023-05-23T06:06:37.155Z,19.00
2023-05-23T06:11:41.154Z,19.10
2023-05-23T06:16:44.870Z,19.30
2023-05-23T06:21:50.121Z,19.40
2023-05-23T06:26:53.690Z,19.50
2023-05-23T06:31:57.352Z,19.60
2023-05-23T06:37:02.512Z,19.60
2023-05-23T06:42:06.437Z,19.60
2023-05-23T06:47:10.218Z,19.60
2023-05-23T06:52:15.410Z,19.70
2023-05-23T06:57:19.120Z,19.80
2023-05-23T07:02:22.814Z,20.00
2023-05-23T07:07:27.878Z,20.20
2023-05-23T07:12:33.442Z,20.30
2023-05-23T07:17:38.234Z,20.40
2023-05-23T07:22:43.447Z,20.50
2023-05-23T07:27:46.920Z,20.70
2023-05-23T07:32:52.504Z,20.90
2023-05-23T07:37:57.890Z,21.10
2023-05-23T07:43:01.461Z,21.30
2023-05-23T07:48:05.329Z,21.50
2023-05-23T07:53:10.236Z,21.50
2023-05-23T07:58:14.039Z,21.60
2023-05-23T08:03:19.153Z,21.80
2023-05-23T08:08:24.082Z,21.90
2023-05-23T08:13:28.461Z,22.00
2023-05-23T08:18:31.980Z,22.10
2023-05-23T08:23:37.112Z,22.20
2023-05-23T08:28:40.760Z,22.20
2023-05-23T08:33:44.792Z,22.20
2023-05-23T08:38:50.697Z,22.20
2023-05-23T08:43:54.360Z,22.20
2023-05-23T08:49:00.454Z,22.20
2023-05-23T08:54:06.399Z,22.10
2023-05-23T08:59:11.169Z,22.20
2023-05-23T09:04:14.820Z,22.20
2023-05-23T09:09:19.759Z,22.20
2023-05-23T09:14:23.205Z,22.20
2023-05-23T09:19:26.740Z,22.10
2023-05-23T09:24:37.434Z,22.20
2023-05-23T09:29:41.184Z,22.20
2023-05-23T09:34:59.691Z,22.20
2023-05-23T09:40:12.125Z,22.20
2023-05-23T09:45:16.306Z,22.10
2023-05-23T09:50:20.024Z,22.10
2023-05-23T09:55:24.935Z,22.00
2023-05-23T10:00:29.006Z,21.90
2023-05-23T10:05:37.404Z,21.90
2023-05-23T10:11:31.224Z,21.90
2023-05-23T10:16:41.682Z,21.90
2023-05-23T10:21:56.773Z,22.00
2023-05-23T10:27:01.654Z,21.90
2023-05-23T10:32:08.316Z,21.90
2023-05-23T10:37:19.146Z,21.80
2023-05-23T10:42:36.816Z,21.80
2023-05-23T10:47:40.361Z,21.90
2023-05-23T10:52:45.142Z,22.00
2023-05-23T10:58:10.771Z,22.30
2023-05-23T11:03:14.782Z,22.50
2023-05-23T11:08:19.012Z,22.60
2023-05-23T11:13:24.495Z,22.80
2023-05-23T11:18:30.986Z,23.00
2023-05-23T11:23:41.955Z,23.20
2023-05-23T11:29:00.035Z,23.40
2023-05-23T11:34:03.710Z,23.50
2023-05-23T11:39:07.545Z,23.60
2023-05-23T11:44:15.350Z,23.60
2023-05-23T11:49:18.758Z,23.70
2023-05-23T11:54:24.535Z,23.90
2023-05-23T11:59:29.439Z,24.10
2023-05-23T12:04:32.983Z,24.20
2023-05-23T12:09:43.983Z,24.30
2023-05-23T12:14:48.966Z,24.00
2023-05-23T12:19:54.327Z,24.00
2023-05-23T12:24:58.216Z,24.10
2023-05-23T12:30:13.109Z,24.30
2023-05-23T12:35:17.058Z,24.40
2023-05-23T12:40:21.548Z,24.40
2023-05-23T12:45:32.744Z,24.30
2023-05-23T12:50:36.285Z,24.30
2023-05-23T12:55:39.875Z,24.30
2023-05-23T13:00:44.810Z,24.30
2023-05-23T13:05:48.365Z,24.20
2023-05-23T13:10:52.558Z,24.20
2023-05-23T13:15:57.902Z,24.20
2023-05-23T13:21:01.672Z,24.20
2023-05-23T13:26:05.265Z,24.20
2023-05-23T13:31:10.130Z,24.30
2023-05-23T13:36:14.025Z,24.60
2023-05-23T13:41:17.764Z,24.90
2023-05-23T13:46:22.669Z,25.30
2023-05-23T13:51:26.481Z,25.60
2023-05-23T13:56:30.216Z,25.60
2023-05-23T14:01:35.077Z,25.70
2023-05-23T14:06:38.986Z,25.80
2023-05-23T14:11:42.636Z,26.20
2023-05-23T14:16:47.835Z,26.40
2023-05-23T14:21:51.355Z,26.40
2023-05-23T14:26:54.808Z,26.20
2023-05-23T14:32:00.947Z,26.00
2023-05-23T14:37:04.843Z,25.70
2023-05-23T14:42:08.455Z,25.40
2023-05-23T14:47:15.895Z,25.20
2023-05-23T14:52:19.385Z,24.80
2023-05-23T14:57:22.912Z,24.70
2023-05-23T15:02:28.116Z,24.40
2023-05-23T15:07:32.385Z,24.00
2023-05-23T15:12:36.070Z,23.90
2023-05-23T15:17:41.238Z,23.80
2023-05-23T15:22:44.800Z,23.80
2023-05-23T15:27:48.362Z,24.40
2023-05-23T15:32:56.886Z,25.50
2023-05-23T15:38:01.494Z,26.60
2023-05-23T15:43:04.980Z,27.10
2023-05-23T15:48:09.880Z,27.50
2023-05-23T15:53:13.471Z,27.70
2023-05-23T15:58:17.018Z,27.30
2023-05-23T16:03:22.127Z,26.60
2023-05-23T16:08:25.672Z,26.00
2023-05-23T16:13:29.175Z,25.30
2023-05-23T16:18:34.191Z,24.90
2023-05-23T16:23:37.626Z,24.70
2023-05-23T16:28:42.439Z,24.40
2023-05-23T16:33:47.497Z,24.30
2023-05-23T16:38:52.504Z,24.20
2023-05-23T16:43:57.632Z,24.00
2023-05-23T16:49:02.486Z,23.90
2023-05-23T16:54:07.576Z,23.90
2023-05-23T16:59:11.118Z,23.80
2023-05-23T17:04:17.670Z,23.70
2023-05-23T17:09:23.654Z,23.60
2023-05-23T17:14:27.478Z,23.40
2023-05-23T17:19:32.899Z,23.30
2023-05-23T17:24:37.334Z,23.20
2023-05-23T17:29:40.890Z,23.00
2023-05-23T17:34:46.423Z,22.80
2023-05-23T17:39:51.093Z,22.60
2023-05-23T17:44:54.696Z,22.60
2023-05-23T17:49:59.563Z,22.40
2023-05-23T17:55:03.754Z,22.10
2023-05-23T18:00:08.546Z,22.00
2023-05-23T18:05:13.634Z,21.70
2023-05-23T18:10:17.450Z,21.60
2023-05-23T18:15:20.990Z,21.40
2023-05-23T18:20:26.485Z,21.30
2023-05-23T18:25:29.913Z,21.10
2023-05-23T18:30:33.685Z,20.90
2023-05-23T18:35:38.730Z,20.90
2023-05-23T18:40:42.572Z,20.80
2023-05-23T18:45:46.376Z,20.40
2023-05-23T18:50:51.902Z,20.00
2023-05-23T18:55:55.578Z,19.80
2023-05-23T19:01:03.560Z,19.60
2023-05-23T19:06:09.065Z,19.30
2023-05-23T19:11:12.603Z,19.20
2023-05-23T19:16:17.394Z,19.10
2023-05-23T19:21:22.614Z,19.00
2023-05-23T19:26:26.157Z,19.00
2023-05-23T19:31:29.800Z,19.00
2023-05-23T19:36:35.566Z,19.00
2023-05-23T19:41:39.065Z,19.00
2023-05-23T19:46:42.784Z,18.90
2023-05-23T19:51:47.653Z,18.90
2023-05-23T19:56:51.297Z,18.80
2023-05-23T20:01:54.818Z,18.80
2023-05-23T20:07:00.351Z,18.80
2023-05-23T20:12:03.861Z,18.70
2023-05-23T20:17:08.044Z,18.70
2023-05-23T20:22:13.194Z,18.60
2023-05-23T20:27:16.952Z,18.70
2023-05-23T20:32:20.827Z,18.60
2023-05-23T20:37:28.233Z,18.60
2023-05-23T20:42:32.776Z,18.50
2023-05-23T20:47:37.476Z,18.50
2023-05-23T20:52:43.079Z,18.40
2023-05-23T20:57:46.942Z,18.40
2023-05-23T21:02:50.568Z,18.30
2023-05-23T21:07:55.665Z,18.20
2023-05-23T21:13:00.260Z,18.30
2023-05-23T21:18:03.837Z,18.30
2023-05-23T21:23:09.052Z,18.30
2023-05-23T21:28:12.683Z,18.10
2023-05-23T21:33:16.553Z,18.00
2023-05-23T21:38:21.657Z,18.00
2023-05-23T21:43:25.246Z,17.90
2023-05-23T21:48:28.979Z,18.10
2023-05-23T21:53:33.830Z,18.00
2023-05-23T21:58:37.497Z,18.00
2023-05-23T22:03:41.071Z,18.00
2023-05-23T22:08:46.252Z,17.90
2023-05-23T22:13:50.164Z,18.00
2023-05-23T22:18:53.869Z,18.10
2023-05-23T22:23:59.028Z,18.10
2023-05-23T22:29:02.585Z,18.10
2023-05-23T22:34:06.047Z,18.10
2023-05-23T22:39:10.920Z,18.00
2023-05-23T22:44:14.576Z,17.90
2023-05-23T22:49:21.691Z,17.70
2023-05-23T22:54:26.514Z,17.60
2023-05-23T22:59:31.097Z,17.50
2023-05-23T23:04:35.392Z,17.40
2023-05-23T23:09:40.473Z,17.30
2023-05-23T23:14:43.986Z,17.20
2023-05-23T23:19:49.565Z,17.30
2023-05-23T23:24:56.187Z,17.30
2023-05-23T23:29:59.933Z,17.30
2023-05-23T23:35:03.568Z,17.30
2023-05-23T23:40:10.061Z,17.20
2023-05-23T23:45:13.728Z,17.20
2023-05-23T23:50:17.453Z,17.10
2023-05-23T23:55:22.281Z,16.80
